Terminal Aerodrome Forecast
Issued by NWS Paducah, KY

Home | Current Version | Previous Version | Text Only | Print | Product List | Glossary On
Versions: 1 2 3 4 5 6 7 8 9 10 11 12 13 14 15 16 17
435
FTUS43 KPAH 200938 AAA
TAFEVV
TAF AMD
KEVV 200938Z 2010/2106 23008KT P6SM BKN015 OVC025
     FM201800 21005KT 6SM BR OVC010
     FM210300 18005KT 6SM BR OVC012=

USA.gov is the U.S. government's official web portal to all federal, state and local government web resources and services.